Time;durP1;ratioP1;P1;durP2;ratioP2;P2;SDS_P1;SDS_P2;PMS_P1;PMS_P2;Temp;Humidity;BMP_temperature;BMP_pressure;BME280_temperature;BME280_humidity;BME280_pressure;Samples;Min_cycle;Max_cycle;Signal;HPM_P1;HPM_P2
2024/01/31 00:01:18;;;;;;;13.50;11.63;;;;;;;1.29;100.00;146387.63;5114091;28;20180;-58
2024/01/31 00:03:45;;;;;;;11.93;10.70;;;;;;;1.34;100.00;146398.94;5113758;28;20187;-58
2024/01/31 00:06:14;;;;;;;16.83;12.57;;;;;;;1.20;100.00;146365.06;5113662;28;20183;-58
2024/01/31 00:08:42;;;;;;;15.87;12.67;;;;;;;1.06;100.00;146329.94;5113630;28;20187;-58
2024/01/31 00:11:09;;;;;;;13.50;11.80;;;;;;;1.08;100.00;146334.97;5113949;28;20630;-58
2024/01/31 00:13:36;;;;;;;18.50;13.17;;;;;;;1.17;100.00;146356.28;5113458;28;20270;-59
2024/01/31 00:16:03;;;;;;;15.77;12.30;;;;;;;1.11;100.00;146341.22;5114295;28;20183;-58
2024/01/31 00:18:30;;;;;;;17.07;13.30;;;;;;;1.02;100.00;146319.91;5114132;28;20207;-58
2024/01/31 00:20:58;;;;;;;19.07;14.83;;;;;;;0.76;100.00;146254.75;5113683;28;20175;-59
2024/01/31 00:23:26;;;;;;;17.77;13.57;;;;;;;0.87;100.00;146282.31;5113269;28;20248;-58
2024/01/31 00:25:53;;;;;;;16.23;12.40;;;;;;;0.93;100.00;146297.38;5113561;28;20630;-57
2024/01/31 00:28:20;;;;;;;17.27;13.80;;;;;;;0.88;100.00;146284.81;5113977;28;20228;-59
2024/01/31 00:30:47;;;;;;;20.03;14.23;;;;;;;0.84;100.00;146274.81;5113433;28;20558;-58
2024/01/31 00:33:14;;;;;;;22.17;14.83;;;;;;;0.82;100.00;146271.03;5112980;28;20303;-58
2024/01/31 00:35:41;;;;;;;14.83;13.23;;;;;;;0.85;100.00;146277.28;5113086;28;20183;-58
2024/01/31 00:38:09;;;;;;;23.80;14.23;;;;;;;0.81;100.00;146267.25;5112955;28;20203;-58
2024/01/31 00:40:37;;;;;;;21.30;15.23;;;;;;;0.66;100.00;146229.66;5113511;28;20188;-59
2024/01/31 00:43:04;;;;;;;24.27;14.93;;;;;;;0.64;100.00;146225.88;5112866;28;20241;-57
2024/01/31 00:45:31;;;;;;;23.03;15.27;;;;;;;0.65;100.00;146227.13;5113711;28;20192;-59
2024/01/31 00:47:58;;;;;;;17.73;13.60;;;;;;;0.77;100.00;146257.22;5112786;28;20200;-58
2024/01/31 00:50:25;;;;;;;15.97;12.60;;;;;;;0.82;100.00;146271.03;5112762;28;20218;-58
2024/01/31 00:52:52;;;;;;;16.40;12.80;;;;;;;0.78;100.00;146261.00;5112736;28;20217;-59
2024/01/31 00:55:20;;;;;;;17.17;12.67;;;;;;;0.95;100.00;146301.09;5112703;28;20234;-58
2024/01/31 00:57:48;;;;;;;16.30;12.50;;;;;;;0.98;100.00;146309.88;5113001;28;20541;-59
2024/01/31 01:00:16;;;;;;;13.67;12.13;;;;;;;0.99;100.00;146312.38;5112984;28;20188;-58
2024/01/31 01:02:43;;;;;;;17.17;13.03;;;;;;;1.02;100.00;146319.91;5113048;28;20603;-59
2024/01/31 01:05:11;;;;;;;14.93;13.10;;;;;;;1.03;100.00;146322.41;5112570;28;20184;-57
2024/01/31 01:07:39;;;;;;;17.77;13.67;;;;;;;0.90;100.00;146289.81;5112508;28;20194;-59
2024/01/31 01:10:07;;;;;;;18.83;13.57;;;;;;;0.93;100.00;146296.13;5112767;28;20183;-58
2024/01/31 01:12:34;;;;;;;17.60;13.60;;;;;;;0.84;100.00;146274.81;5112467;28;20270;-58
2024/01/31 01:15:03;;;;;;;16.80;13.73;;;;;;;0.83;100.00;146273.53;5112632;28;20199;-59
2024/01/31 01:17:30;;;;;;;19.57;13.77;;;;;;;0.81;100.00;146268.50;5112381;28;20290;-59
2024/01/31 01:19:57;;;;;;;16.60;12.83;;;;;;;0.68;100.00;146235.91;5112763;28;20260;-58
2024/01/31 01:22:24;;;;;;;16.57;12.50;;;;;;;0.86;100.00;146281.06;5112396;28;20178;-59
2024/01/31 01:24:52;;;;;;;16.27;12.40;;;;;;;0.74;100.00;146249.72;5112604;28;20201;-58
2024/01/31 01:27:19;;;;;;;15.20;12.73;;;;;;;0.73;100.00;146248.47;5112344;28;20188;-59
2024/01/31 01:29:47;;;;;;;18.10;13.63;;;;;;;0.85;100.00;146277.28;5112535;28;20248;-58
2024/01/31 01:32:15;;;;;;;16.70;12.90;;;;;;;0.90;100.00;146291.06;5112194;28;20240;-57
2024/01/31 01:34:42;;;;;;;16.23;13.10;;;;;;;0.90;100.00;146289.81;5112157;28;20236;-58
2024/01/31 01:37:09;;;;;;;18.83;12.87;;;;;;;0.93;100.00;146298.59;5112438;28;20621;-57
2024/01/31 01:39:37;;;;;;;18.97;14.23;;;;;;;0.97;100.00;146306.13;5112328;28;20637;-58
2024/01/31 01:42:04;;;;;;;20.53;13.23;;;;;;;0.94;100.00;146299.84;5112370;28;20179;-58
2024/01/31 01:44:34;;;;;;;17.43;14.27;;;;;;;0.99;100.00;146311.13;5112448;28;20191;-58
2024/01/31 01:47:02;;;;;;;15.80;12.80;;;;;;;0.92;100.00;146294.84;5116389;28;20187;-58
2024/01/31 01:49:34;;;;;;;18.80;13.07;;;;;;;0.95;100.00;146302.38;5116619;28;20614;-58
2024/01/31 01:52:01;;;;;;;15.60;12.80;;;;;;;1.10;100.00;146338.75;5116190;28;20220;-59
2024/01/31 01:54:28;;;;;;;14.37;12.40;;;;;;;1.17;100.00;146357.53;5116027;28;20299;-58
2024/01/31 01:56:55;;;;;;;15.10;13.00;;;;;;;1.18;100.00;146360.06;5116417;28;20180;-58
2024/01/31 01:59:22;;;;;;;14.77;13.20;;;;;;;1.19;100.00;146362.53;5116361;28;20207;-59
2024/01/31 02:01:50;;;;;;;17.17;13.97;;;;;;;1.14;100.00;146350.03;5116498;28;20674;-58
2024/01/31 02:04:18;;;;;;;17.13;13.53;;;;;;;1.15;100.00;146352.50;5116317;28;20179;-58
2024/01/31 02:06:47;;;;;;;18.90;14.43;;;;;;;1.12;100.00;146343.75;5115948;28;20278;-60
2024/01/31 02:09:14;;;;;;;25.33;15.47;;;;;;;0.81;100.00;146267.25;5115960;28;20176;-58
2024/01/31 02:11:41;;;;;;;20.83;14.87;;;;;;;0.89;100.00;146287.34;5116159;28;20557;-58
2024/01/31 02:14:08;;;;;;;24.17;15.70;;;;;;;0.76;100.00;146254.75;5115901;28;20188;-59
2024/01/31 02:16:36;;;;;;;20.37;15.00;;;;;;;0.80;100.00;146266.03;5116243;28;20675;-59
2024/01/31 02:19:03;;;;;;;24.23;16.07;;;;;;;0.69;100.00;146237.16;5115628;28;20302;-58
2024/01/31 02:21:33;;;;;;;22.60;16.23;;;;;;;0.70;100.00;146239.69;5115963;28;20645;-59
2024/01/31 02:24:01;;;;;;;29.40;17.50;;;;;;;0.72;100.00;146244.72;5115958;28;20564;-58
2024/01/31 02:26:30;;;;;;;21.87;15.80;;;;;;;0.73;100.00;146247.19;5115597;28;20187;-59
2024/01/31 02:28:57;;;;;;;25.87;17.43;;;;;;;0.69;100.00;146238.44;5115833;28;20180;-58
2024/01/31 02:31:25;;;;;;;21.47;15.20;;;;;;;0.76;100.00;146256.00;5115480;28;20304;-58
2024/01/31 02:33:52;;;;;;;22.50;16.67;;;;;;;0.79;100.00;146262.25;5115480;28;20179;-58
2024/01/31 02:36:19;;;;;;;19.70;14.90;;;;;;;0.74;100.00;146249.72;5115712;28;20589;-58
2024/01/31 02:38:46;;;;;;;23.77;16.30;;;;;;;0.57;100.00;146207.09;5115392;28;20239;-58
2024/01/31 02:41:14;;;;;;;23.37;16.53;;;;;;;0.68;100.00;146235.91;5115528;28;20637;-59
2024/01/31 02:43:42;;;;;;;23.93;16.13;;;;;;;0.74;100.00;146250.97;5115310;28;20183;-59
2024/01/31 02:46:09;;;;;;;22.00;15.80;;;;;;;0.71;100.00;146242.22;5115231;28;20274;-59
2024/01/31 02:48:36;;;;;;;22.80;16.57;;;;;;;0.70;100.00;146240.94;5115117;28;20187;-57
2024/01/31 02:51:03;;;;;;;22.97;17.03;;;;;;;0.68;100.00;146234.69;5115143;28;20187;-58
2024/01/31 02:53:30;;;;;;;24.43;16.93;;;;;;;0.52;100.00;146195.81;5116093;28;20200;-57
2024/01/31 02:55:57;;;;;;;21.47;15.87;;;;;;;0.73;100.00;146247.19;5114626;28;20227;-58
2024/01/31 02:58:26;;;;;;;23.00;16.13;;;;;;;0.66;100.00;146230.91;5115207;28;20237;-57
2024/01/31 03:00:53;;;;;;;24.73;17.33;;;;;;;0.68;100.00;146235.91;5115196;28;20225;-58
2024/01/31 03:03:20;;;;;;;25.27;16.17;;;;;;;0.77;100.00;146257.22;5115341;28;20213;-59
2024/01/31 03:05:47;;;;;;;21.67;16.53;;;;;;;0.59;100.00;146212.13;5114876;28;20191;-60
2024/01/31 03:08:14;;;;;;;25.00;17.20;;;;;;;0.58;100.00;146210.88;5114856;28;20237;-58
2024/01/31 03:10:44;;;;;;;20.23;14.57;;;;;;;0.75;100.00;146252.22;5114751;28;20180;-58
2024/01/31 03:13:11;;;;;;;23.33;16.53;;;;;;;0.74;100.00;146249.72;5114794;28;20274;-58
2024/01/31 03:15:40;;;;;;;24.20;16.20;;;;;;;0.80;100.00;146264.78;5114699;28;20190;-58
2024/01/31 03:18:07;;;;;;;22.00;16.20;;;;;;;0.49;100.00;146187.06;5114642;28;20260;-58
2024/01/31 03:20:34;;;;;;;22.77;17.47;;;;;;;0.75;100.00;146253.50;5114755;28;20231;-58
2024/01/31 03:23:02;;;;;;;19.97;15.50;;;;;;;0.75;100.00;146252.22;5114855;28;20316;-59
2024/01/31 03:25:29;;;;;;;23.90;16.53;;;;;;;0.72;100.00;146244.72;5115027;28;20198;-57
2024/01/31 03:27:56;;;;;;;23.10;15.57;;;;;;;0.04;100.00;146075.56;5114423;28;20241;-58
2024/01/31 03:30:23;;;;;;;19.50;15.27;;;;;;;0.48;100.00;146185.78;5114649;28;20191;-59
2024/01/31 03:32:51;;;;;;;20.73;15.47;;;;;;;0.40;100.00;146167.00;5114351;27;20240;-57
2024/01/31 03:35:18;;;;;;;24.83;16.13;;;;;;;0.71;100.00;146242.22;5114318;28;20195;-59
2024/01/31 03:37:46;;;;;;;21.93;16.50;;;;;;;0.71;100.00;146242.22;5114274;28;20249;-58
2024/01/31 03:40:13;;;;;;;21.07;15.67;;;;;;;0.49;100.00;146187.06;5114480;28;20671;-58
2024/01/31 03:42:40;;;;;;;23.47;16.07;;;;;;;0.67;100.00;146232.19;5114196;28;20229;-58
2024/01/31 03:45:07;;;;;;;25.33;16.80;;;;;;;0.69;100.00;146238.44;5114853;28;20252;-58
2024/01/31 03:47:35;;;;;;;22.73;17.00;;;;;;;0.78;100.00;146261.00;5114333;28;20233;-57
2024/01/31 03:50:05;;;;;;;26.50;17.87;;;;;;;0.68;100.00;146234.69;5113978;28;20222;-59
2024/01/31 03:52:35;;;;;;;23.97;16.17;;;;;;;0.78;100.00;146259.75;5113737;28;20656;-59
2024/01/31 03:55:02;;;;;;;23.73;17.33;;;;;;;0.65;100.00;146228.41;5113736;28;20231;-59
2024/01/31 03:57:29;;;;;;;28.50;16.27;;;;;;;0.66;100.00;146229.66;5114136;28;20187;-58
2024/01/31 04:00:03;;;;;;;22.53;16.87;;;;;;;0.68;100.00;146235.91;5113971;28;20623;-58
2024/01/31 04:02:30;;;;;;;24.30;16.30;;;;;;;0.67;100.00;146232.19;5114182;28;20625;-58
2024/01/31 04:04:58;;;;;;;21.47;16.23;;;;;;;0.61;100.00;146217.13;5113849;28;20183;-59
2024/01/31 04:07:28;;;;;;;23.87;17.23;;;;;;;0.59;100.00;146212.13;5112907;28;20192;-58
2024/01/31 04:09:55;;;;;;;23.87;17.47;;;;;;;0.62;100.00;146220.91;5113877;28;20208;-58
2024/01/31 04:12:22;;;;;;;20.90;15.23;;;;;;;0.65;100.00;146228.41;5113639;28;20236;-59
2024/01/31 04:14:49;;;;;;;23.70;16.33;;;;;;;0.56;100.00;146204.56;5113454;28;20240;-59
2024/01/31 04:17:16;;;;;;;21.83;17.07;;;;;;;0.74;100.00;146249.72;5113406;28;20187;-58
2024/01/31 04:19:48;;;;;;;22.80;16.43;;;;;;;0.72;100.00;146244.72;5113616;28;20199;-58
2024/01/31 04:22:16;;;;;;;25.50;16.60;;;;;;;0.73;100.00;146247.19;5113339;28;20180;-58
2024/01/31 04:24:44;;;;;;;25.93;16.77;;;;;;;0.59;100.00;146213.38;5114080;28;20274;-59
2024/01/31 04:27:11;;;;;;;22.40;17.20;;;;;;;0.80;100.00;146264.78;5113562;28;20229;-57
2024/01/31 04:29:39;;;;;;;25.87;17.63;;;;;;;0.77;100.00;146257.22;5113188;28;20184;-57
2024/01/31 04:32:07;;;;;;;27.70;18.20;;;;;;;0.83;100.00;146273.53;5113490;28;20648;-58
2024/01/31 04:34:35;;;;;;;25.87;17.03;;;;;;;0.88;100.00;146286.09;5113438;28;20180;-59
2024/01/31 04:37:02;;;;;;;23.33;17.23;;;;;;;0.84;100.00;146274.81;5113004;28;20179;-59
2024/01/31 04:39:29;;;;;;;24.67;17.30;;;;;;;0.94;100.00;146299.84;5113185;28;20252;-59
2024/01/31 04:41:57;;;;;;;22.30;17.10;;;;;;;0.95;100.00;146302.38;5112972;28;20241;-59
2024/01/31 04:44:24;;;;;;;22.60;16.73;;;;;;;0.99;100.00;146311.13;5113224;28;20608;-58
2024/01/31 04:46:52;;;;;;;21.80;17.23;;;;;;;0.89;100.00;146288.56;5112830;28;20213;-58
2024/01/31 04:49:19;;;;;;;22.53;17.77;;;;;;;0.90;100.00;146289.81;5113098;28;20274;-58
2024/01/31 04:51:46;;;;;;;27.70;18.53;;;;;;;0.90;100.00;146291.06;5113033;28;20604;-58
2024/01/31 04:54:13;;;;;;;24.80;16.47;;;;;;;0.87;100.00;146283.56;5112907;28;20187;-58
2024/01/31 04:56:40;;;;;;;24.37;17.50;;;;;;;0.89;100.00;146288.56;5113679;28;20251;-59
2024/01/31 04:59:08;;;;;;;30.13;17.43;;;;;;;0.80;100.00;146264.78;5112885;28;20531;-59
2024/01/31 05:01:36;;;;;;;23.63;17.30;;;;;;;0.81;100.00;146268.50;5112572;28;20245;-59
2024/01/31 05:04:03;;;;;;;29.13;19.10;;;;;;;0.82;100.00;146271.03;5112512;28;20198;-58
2024/01/31 05:06:30;;;;;;;24.87;17.33;;;;;;;0.89;100.00;146287.34;5112532;27;20271;-59
2024/01/31 05:08:57;;;;;;;23.37;17.53;;;;;;;0.91;100.00;146292.34;5112452;28;20195;-57
2024/01/31 05:11:24;;;;;;;26.90;19.00;;;;;;;0.96;100.00;146304.88;5112541;27;20187;-59
2024/01/31 05:13:51;;;;;;;28.17;19.13;;;;;;;0.92;100.00;146294.84;5112676;28;20184;-58
2024/01/31 05:16:20;;;;;;;27.23;19.33;;;;;;;0.89;100.00;146287.34;5112341;28;20221;-59
2024/01/31 05:18:47;;;;;;;31.03;20.47;;;;;;;0.93;100.00;146297.38;5112290;28;20184;-59
2024/01/31 05:21:14;;;;;;;33.13;20.00;;;;;;;0.93;100.00;146298.59;5112564;28;20726;-59
2024/01/31 05:23:42;;;;;;;28.03;20.07;;;;;;;0.82;100.00;146269.75;5112292;28;20219;-59
2024/01/31 05:26:09;;;;;;;29.30;19.90;;;;;;;1.01;100.00;146316.16;5112547;28;20594;-58
2024/01/31 05:28:37;;;;;;;34.90;22.10;;;;;;;1.00;100.00;146313.66;5112612;28;20232;-59
2024/01/31 05:31:04;;;;;;;35.63;21.40;;;;;;;0.84;100.00;146274.81;5112222;28;20239;-58
2024/01/31 05:33:33;;;;;;;34.00;20.83;;;;;;;1.05;100.00;146327.47;5112441;28;20240;-58
2024/01/31 05:36:01;;;;;;;33.87;21.93;;;;;;;1.06;100.00;146328.72;5112172;28;20183;-59
2024/01/31 05:38:28;;;;;;;34.63;21.63;;;;;;;1.11;100.00;146342.47;5112361;28;20670;-59
2024/01/31 05:40:55;;;;;;;31.03;20.73;;;;;;;1.13;100.00;146346.25;5111962;28;20211;-58
2024/01/31 05:43:22;;;;;;;31.07;21.57;;;;;;;1.11;100.00;146341.22;5112003;28;20194;-58
2024/01/31 05:45:49;;;;;;;28.97;19.50;;;;;;;1.08;100.00;146334.97;5112241;28;20187;-57
2024/01/31 05:48:16;;;;;;;29.30;19.40;;;;;;;1.10;100.00;146340.00;5112324;28;20687;-59
2024/01/31 05:50:45;;;;;;;30.90;20.33;;;;;;;1.12;100.00;146345.00;5112014;28;20179;-58
2024/01/31 05:53:12;;;;;;;31.30;21.00;;;;;;;1.13;100.00;146346.25;5112279;28;20637;-59
2024/01/31 05:55:39;;;;;;;30.47;19.43;;;;;;;1.22;100.00;146368.84;5111790;28;20284;-58
2024/01/31 05:58:06;;;;;;;30.73;20.33;;;;;;;1.23;100.00;146372.56;5112216;28;20603;-57
2024/01/31 06:00:33;;;;;;;27.97;19.70;;;;;;;1.31;100.00;146391.41;5112078;28;20206;-58
2024/01/31 06:03:00;;;;;;;25.83;19.43;;;;;;;1.05;100.00;146327.47;5112308;28;20550;-59
2024/01/31 06:05:27;;;;;;;26.43;19.73;;;;;;;1.24;100.00;146373.81;5111941;28;20183;-59
2024/01/31 06:07:56;;;;;;;30.23;21.63;;;;;;;1.10;100.00;146340.00;5112061;28;20183;-59
2024/01/31 06:10:24;;;;;;;28.27;20.83;;;;;;;1.33;100.00;146396.41;5111762;28;20183;-58
2024/01/31 06:12:51;;;;;;;28.20;20.33;;;;;;;1.71;100.00;146490.47;5111714;28;20191;-58
2024/01/31 06:15:20;;;;;;;29.53;19.27;;;;;;;1.72;100.00;146494.25;5111617;28;20184;-60
2024/01/31 06:17:47;;;;;;;28.77;18.43;;;;;;;1.90;100.00;146536.94;5111498;28;20300;-61
2024/01/31 06:20:14;;;;;;;27.13;18.83;;;;;;;2.06;100.00;146577.06;5111839;28;20754;-59
2024/01/31 06:22:41;;;;;;;33.37;21.30;;;;;;;2.42;100.00;146667.44;5111934;28;20194;-60
2024/01/31 06:25:10;;;;;;;28.80;19.40;;;;;;;2.14;100.00;146598.41;5111622;28;20194;-59
2024/01/31 06:27:38;;;;;;;28.10;18.67;;;;;;;2.21;100.00;146615.97;5111935;28;20184;-59
2024/01/31 06:30:06;;;;;;;31.70;20.83;;;;;;;1.92;100.00;146543.19;5112094;28;20183;-60
2024/01/31 06:32:35;;;;;;;29.83;19.77;;;;;;;1.87;100.00;146530.63;5115203;28;20187;-59
2024/01/31 06:35:02;;;;;;;31.17;20.27;;;;;;;1.65;100.00;146475.47;5115350;28;20193;-59
2024/01/31 06:37:29;;;;;;;34.40;20.57;;;;;;;1.52;100.00;146442.84;5115378;28;20240;-59
2024/01/31 06:39:56;;;;;;;43.40;19.73;;;;;;;1.52;100.00;146442.84;5115485;28;20210;-59
2024/01/31 06:42:25;;;;;;;32.90;20.13;;;;;;;1.49;100.00;146435.28;5115374;28;20179;-59
2024/01/31 06:44:52;;;;;;;34.57;20.23;;;;;;;2.21;100.00;146614.69;5115431;28;20626;-58
2024/01/31 06:47:19;;;;;;;29.53;19.27;;;;;;;2.64;100.00;146722.69;5115331;28;20180;-60
2024/01/31 06:49:46;;;;;;;27.80;18.60;;;;;;;3.07;100.00;146828.16;5115008;28;20183;-60
2024/01/31 06:52:13;;;;;;;33.17;18.70;;;;;;;3.68;100.00;146980.22;5114982;28;20236;-61
2024/01/31 06:54:40;;;;;;;25.27;19.03;;;;;;;4.39;100.00;147157.47;5114666;27;20272;-59
2024/01/31 06:57:07;;;;;;;25.17;17.60;;;;;;;4.80;100.00;147259.34;5114731;28;20237;-60
2024/01/31 06:59:36;;;;;;;23.43;17.93;;;;;;;5.34;100.00;147392.72;5115082;28;20199;-60
2024/01/31 07:02:03;;;;;;;27.20;17.73;;;;;;;5.78;100.00;147503.47;5114664;28;20195;-59
2024/01/31 07:04:30;;;;;;;25.63;18.30;;;;;;;6.17;100.00;147599.25;5114861;28;20187;-60
2024/01/31 07:06:57;;;;;;;24.13;17.97;;;;;;;6.15;100.00;147595.50;5114744;28;20194;-60
2024/01/31 07:09:24;;;;;;;24.80;17.97;;;;;;;6.72;100.00;147737.81;5114791;28;20690;-60
2024/01/31 07:11:52;;;;;;;26.47;16.83;;;;;;;7.46;100.00;147921.84;5114576;28;20180;-61
2024/01/31 07:14:19;;;;;;;31.97;19.17;;;;;;;7.80;100.00;148006.34;5114500;28;20615;-60
2024/01/31 07:16:47;;;;;;;35.17;23.83;;;;;;;8.37;100.00;148147.63;5114456;28;20184;-62
2024/01/31 07:19:14;;;;;;;38.10;23.60;;;;;;;8.60;100.00;148206.97;5114805;28;20184;-61
2024/01/31 07:21:41;;;;;;;38.80;23.67;;;;;;;8.33;99.81;148138.81;5114358;28;20199;-61
2024/01/31 07:24:08;;;;;;;37.63;21.93;;;;;;;8.35;99.58;148142.63;5115785;28;20613;-60
2024/01/31 07:26:36;;;;;;;32.13;23.70;;;;;;;8.34;100.00;148141.34;5118313;28;20637;-61
2024/01/31 07:29:03;;;;;;;37.43;24.03;;;;;;;8.77;98.54;148247.34;5114552;28;20187;-61
2024/01/31 07:31:30;;;;;;;36.97;21.63;;;;;;;8.53;98.97;148188.06;5115122;28;20584;-60
2024/01/31 07:33:58;;;;;;;31.97;21.30;;;;;;;9.15;96.26;148344.56;5114605;28;20191;-60
2024/01/31 07:36:25;;;;;;;29.93;20.37;;;;;;;9.49;89.83;148427.91;5114566;27;20630;-60
2024/01/31 07:38:52;;;;;;;31.63;20.53;;;;;;;9.39;88.13;148402.63;5114358;28;20187;-61
2024/01/31 07:41:19;;;;;;;35.87;22.50;;;;;;;9.94;84.10;148540.31;5114615;28;20235;-62
2024/01/31 07:43:46;;;;;;;35.00;20.80;;;;;;;10.09;81.29;148579.50;5115016;27;20541;-60
2024/01/31 07:46:14;;;;;;;24.87;18.87;;;;;;;10.71;73.92;148733.72;5114373;28;20622;-61
2024/01/31 07:48:41;;;;;;;25.80;19.17;;;;;;;10.44;73.24;148666.72;5114702;27;20557;-59
2024/01/31 07:51:09;;;;;;;33.57;20.87;;;;;;;10.98;73.46;148800.75;5114196;27;20629;-61
2024/01/31 07:53:37;;;;;;;25.80;20.83;;;;;;;10.96;73.57;148796.94;5114974;28;20187;-61
2024/01/31 07:56:05;;;;;;;29.43;21.40;;;;;;;11.46;70.66;148920.88;5113802;28;20313;-61
2024/01/31 07:58:32;;;;;;;29.17;20.10;;;;;;;12.50;68.19;149180.34;5114595;27;20187;-61
2024/01/31 08:00:59;;;;;;;26.87;19.90;;;;;;;12.58;66.30;149200.59;5114000;28;20199;-61
2024/01/31 08:03:27;;;;;;;41.57;21.10;;;;;;;12.76;65.22;149246.19;5113991;28;20252;-60
2024/01/31 08:05:54;;;;;;;47.03;21.83;;;;;;;12.60;64.08;149205.69;5113564;28;20187;-61
2024/01/31 08:08:23;;;;;;;26.03;20.03;;;;;;;12.81;61.56;149258.88;5113874;28;20687;-61
2024/01/31 08:10:51;;;;;;;24.23;20.07;;;;;;;13.61;59.85;149459.03;5117089;27;20231;-62
2024/01/31 08:13:18;;;;;;;57.77;21.03;;;;;;;14.41;57.42;149659.34;5138159;27;20255;-61
2024/01/31 08:15:45;;;;;;;64.90;21.97;;;;;;;14.25;57.00;149620.00;5134283;27;20179;-62
2024/01/31 08:18:13;;;;;;;44.07;19.23;;;;;;;14.14;56.16;149592.09;5134327;27;20179;-61
2024/01/31 08:20:40;;;;;;;43.63;18.57;;;;;;;13.85;56.50;149519.84;5136085;27;20217;-61
2024/01/31 08:23:07;;;;;;;20.03;16.23;;;;;;;14.09;55.73;149580.69;5134315;27;20190;-60
2024/01/31 08:25:35;;;;;;;36.13;16.07;;;;;;;15.53;52.72;149941.00;5133698;27;20191;-61
2024/01/31 08:28:02;;;;;;;16.23;14.27;;;;;;;16.04;50.21;150067.91;5134003;27;20183;-61
2024/01/31 08:30:29;;;;;;;16.60;13.47;;;;;;;15.52;49.08;149939.72;5133349;27;20179;-60
2024/01/31 08:32:56;;;;;;;33.97;15.13;;;;;;;14.78;50.87;149751.88;5133424;27;20641;-61
2024/01/31 08:35:23;;;;;;;14.10;12.07;;;;;;;14.25;51.28;149620.00;5133265;27;20187;-60
2024/01/31 08:37:50;;;;;;;10.67;9.80;;;;;;;15.62;47.65;149963.78;5133220;27;20179;-60
2024/01/31 08:40:17;;;;;;;11.43;10.20;;;;;;;15.34;46.63;149892.69;5133090;27;20243;-61
2024/01/31 08:42:46;;;;;;;10.10;9.23;;;;;;;16.00;44.90;150060.25;5133662;27;20199;-60
2024/01/31 08:45:16;;;;;;;8.23;7.83;;;;;;;17.27;43.21;150377.81;5133443;27;20187;-61
2024/01/31 08:47:44;;;;;;;6.63;6.33;;;;;;;17.94;41.29;150545.63;5133081;27;20187;-60
2024/01/31 08:50:11;;;;;;;6.53;6.00;;;;;;;18.98;39.18;150807.63;5133575;27;20649;-60
2024/01/31 08:52:39;;;;;;;7.53;7.13;;;;;;;19.43;38.34;150920.94;5133080;27;20227;-61
2024/01/31 08:55:07;;;;;;;7.50;7.13;;;;;;;20.44;36.48;151176.84;5132769;27;20307;-60
2024/01/31 08:57:34;;;;;;;7.90;7.40;;;;;;;20.66;35.60;151231.63;5133166;27;20183;-63
2024/01/31 09:00:04;;;;;;;6.50;5.95;;;;;;;21.18;34.48;151361.56;5133696;27;20214;-61
2024/01/31 09:02:31;;;;;;;9.57;7.30;;;;;;;19.96;35.01;151054.56;5133044;27;20222;-60
2024/01/31 09:04:59;;;;;;;8.25;7.85;;;;;;;20.42;35.62;151170.47;5132672;27;20183;-61
2024/01/31 09:07:26;;;;;;;7.65;7.35;;;;;;;20.49;35.11;151189.59;5132947;27;20617;-61
2024/01/31 09:09:53;;;;;;;7.97;7.40;;;;;;;18.93;36.68;150794.88;5132906;27;20235;-61
2024/01/31 09:12:20;;;;;;;6.63;6.32;;;;;;;20.39;35.60;151162.81;5132978;27;20538;-61
2024/01/31 09:14:47;;;;;;;7.93;7.28;;;;;;;21.14;34.46;151352.66;5133185;27;20190;-61
2024/01/31 09:17:16;;;;;;;6.32;6.03;;;;;;;21.54;33.20;151452.06;5133262;27;20697;-59
2024/01/31 09:19:43;;;;;;;9.10;7.47;;;;;;;21.75;33.55;151506.88;5132796;27;20182;-60
2024/01/31 09:22:10;;;;;;;7.47;6.97;;;;;;;21.80;32.42;151519.63;5132950;27;20213;-60
2024/01/31 09:24:37;;;;;;;6.43;6.13;;;;;;;19.35;35.21;150900.53;5133539;27;20266;-60
2024/01/31 09:27:04;;;;;;;5.72;5.53;;;;;;;20.43;34.33;151173.00;5132658;27;20226;-61
2024/01/31 09:29:31;;;;;;;6.95;6.65;;;;;;;21.90;33.24;151543.81;5132628;27;20191;-61
2024/01/31 09:31:59;;;;;;;6.95;6.55;;;;;;;21.75;32.75;151505.59;5132753;27;20179;-61
2024/01/31 09:34:28;;;;;;;7.18;6.47;;;;;;;20.81;33.34;151269.81;5132482;27;20186;-60
2024/01/31 09:36:55;;;;;;;6.50;6.20;;;;;;;20.81;33.34;151269.81;5132655;27;20209;-61
2024/01/31 09:39:22;;;;;;;6.00;5.80;;;;;;;17.11;38.20;150337.13;5132774;27;20247;-60
2024/01/31 09:41:49;;;;;;;6.28;5.88;;;;;;;17.34;38.45;150395.59;5132277;27;20202;-61
2024/01/31 09:44:17;;;;;;;5.43;5.15;;;;;;;19.09;36.16;150836.91;5132725;27;20210;-60
2024/01/31 09:46:47;;;;;;;5.15;4.95;;;;;;;18.84;35.87;150772.03;5132633;27;20667;-59
2024/01/31 09:49:14;;;;;;;5.50;5.30;;;;;;;18.92;35.68;150792.38;5132742;27;20553;-60
2024/01/31 09:51:43;;;;;;;5.68;5.28;;;;;;;20.28;34.75;151136.06;5132588;27;20538;-60
2024/01/31 09:54:10;;;;;;;8.32;7.78;;;;;;;21.33;33.30;151401.09;5132017;28;20198;-61
2024/01/31 09:56:38;;;;;;;6.38;6.07;;;;;;;22.16;32.26;151608.88;5133488;27;20617;-61
2024/01/31 09:59:05;;;;;;;5.55;5.15;;;;;;;22.77;32.11;151763.25;5132607;27;20182;-60
2024/01/31 10:01:32;;;;;;;7.05;6.43;;;;;;;22.57;31.68;151713.50;5132457;27;20207;-62
2024/01/31 10:03:59;;;;;;;6.80;6.50;;;;;;;22.16;32.44;151608.88;5132791;27;20651;-61
2024/01/31 10:06:28;;;;;;;6.78;6.47;;;;;;;19.84;34.16;151024.00;5134138;27;20183;-61
2024/01/31 10:08:57;;;;;;;6.20;5.78;;;;;;;17.76;36.76;150501.13;5136790;27;20183;-60
2024/01/31 10:11:27;;;;;;;6.15;5.68;;;;;;;18.71;36.59;150740.22;5136731;27;20617;-62
2024/01/31 10:13:55;;;;;;;6.78;6.13;;;;;;;19.95;35.00;151053.28;5136523;27;20505;-61
2024/01/31 10:16:22;;;;;;;5.82;5.53;;;;;;;21.22;33.73;151373.03;5133302;27;20187;-61
2024/01/31 10:18:51;;;;;;;6.45;6.15;;;;;;;22.31;32.55;151648.44;5136484;27;20179;-61
2024/01/31 10:21:19;;;;;;;6.72;6.40;;;;;;;21.88;33.07;151540.03;5136041;27;20679;-61
2024/01/31 10:23:58;;;;;;;6.72;6.43;;;;;;;22.50;32.19;151694.31;5136180;27;20183;-61
2024/01/31 10:26:26;;;;;;;6.43;6.07;;;;;;;22.56;32.12;151709.66;5137132;27;20564;-60
2024/01/31 10:28:53;;;;;;;6.30;5.90;;;;;;;22.12;32.27;151598.69;5135917;27;20190;-60
2024/01/31 10:31:22;;;;;;;8.55;8.15;;;;;;;22.03;32.44;151577.00;5135910;27;20179;-61
2024/01/31 10:33:50;;;;;;;9.23;7.63;;;;;;;21.45;32.83;151429.13;5135907;27;20186;-60
2024/01/31 10:36:19;;;;;;;7.45;7.15;;;;;;;21.88;32.33;151538.75;5135875;27;20183;-60
2024/01/31 10:38:46;;;;;;;7.10;6.68;;;;;;;21.45;32.56;151430.41;5136112;27;20187;-60
2024/01/31 10:41:19;;;;;;;6.60;6.30;;;;;;;22.43;32.30;151677.75;5136365;27;20207;-60
2024/01/31 10:43:49;;;;;;;6.18;5.88;;;;;;;23.70;30.63;151996.81;5135705;27;20189;-60
2024/01/31 10:46:16;;;;;;;6.68;6.18;;;;;;;21.64;31.85;151477.56;5135956;27;20197;-60
2024/01/31 10:48:43;;;;;;;12.50;6.90;;;;;;;21.44;32.74;151427.84;5123149;27;20188;-60
2024/01/31 10:51:12;;;;;;;7.38;6.82;;;;;;;20.58;33.53;151209.97;5115694;28;20662;-61
2024/01/31 10:53:41;;;;;;;11.07;7.07;;;;;;;19.61;35.37;150966.72;5114934;28;20285;-60
2024/01/31 10:56:09;;;;;;;10.73;7.20;;;;;;;19.95;34.51;151053.28;5114854;28;20230;-61
2024/01/31 10:58:39;;;;;;;8.88;7.50;;;;;;;19.93;34.99;151048.19;5115377;28;20653;-59
2024/01/31 11:01:12;;;;;;;7.30;6.70;;;;;;;19.06;35.60;150827.97;5115010;28;20187;-60
2024/01/31 11:03:43;;;;;;;6.82;6.35;;;;;;;19.71;34.79;150992.19;5115301;28;20565;-59
2024/01/31 11:06:10;;;;;;;7.00;6.55;;;;;;;19.18;35.22;150858.50;5114582;28;20222;-60
2024/01/31 11:08:41;;;;;;;6.55;6.13;;;;;;;20.56;33.59;151204.84;5114907;28;20195;-61
2024/01/31 11:11:11;;;;;;;6.22;5.93;;;;;;;20.20;34.59;151114.41;5114862;28;20191;-60
2024/01/31 11:13:40;;;;;;;6.45;6.05;;;;;;;20.62;33.73;151220.16;5115200;28;20649;-60